San Ardo, California
Current Conditions -  °F | °C
As of 9:53 AM on Tuesday 21 Oct 2014 (Local Time) from KPRB Reporting Station
Overcast Overcast  
Wind Chill: 59°   Ceiling: 2200
Heat Index: 59°   Visibility: 10mi
Dew Point: 47°   Wind: 10mph
Humidity: 64%   Direction: 320°NW
Pressure: 30.09"   Gusts: NA
Location:  36.02°N, 120.91°W
Report Text: KPRB 211653Z AUTO 32009KT 10SM OVC022 15/08 A3009 RMK AO2 SLP186 T01500083 TSNO
Loading
Personal Weather Stations






























Interactive Weather Map
Tropical Storm Tracking
New forecast layout! Learn more

10-Day Weather Forecast

Advertisements
Track Severe Weather on mobile